You are listening to:
EHRD Tower - Rotterdam, Netherlands

EHRD 161455Z AUTO 27007KT 250V320 9999 NSC 25/17 Q1009 NOSIG

If stream doesn't start automatically press the play button
If stream stops then reload player then press play